Abernathy, Texas
Current Conditions -  °F | °C
As of 5:53 PM on Friday 28 Nov 2014 (Local Time) from KLBB Reporting Station
Few Clouds Few Clouds  
Wind Chill: 66°   Ceiling: Unl
Heat Index: 66°   Visibility: 10mi
Dew Point: 25°   Wind: 13mph
Humidity: 21%   Direction: 210°SSW
Pressure: 29.96"   Gusts: NA
Location:  33.83°N, 101.84°W
Report Text: KLBB 282353Z 21011KT 10SM FEW270 FEW300 19/M04 A2996 RMK AO2 SLP123 T01891039 10250 20183 56004
Loading
Personal Weather Stations






























Interactive Weather Map New forecast layout! Learn more

10-Day Weather Forecast

Advertisements
Track Severe Weather on mobile